sensor_id;sensor_type;location;lat;lon;timestamp;P1;durP1;ratioP1;P2;durP2;ratioP2
54464;SDS011;40374;49.480;20.016;2023-04-24T00:00:52;55.85;;;23.13;;
54464;SDS011;40374;49.480;20.016;2023-04-24T00:03:57;50.50;;;23.20;;
54464;SDS011;40374;49.480;20.016;2023-04-24T00:06:42;52.97;;;23.77;;
54464;SDS011;40374;49.480;20.016;2023-04-24T00:09:19;52.78;;;26.30;;
54464;SDS011;40374;49.480;20.016;2023-04-24T00:11:47;52.85;;;23.80;;
54464;SDS011;40374;49.480;20.016;2023-04-24T00:14:14;62.35;;;27.67;;
54464;SDS011;40374;49.480;20.016;2023-04-24T00:16:43;57.45;;;25.38;;
54464;SDS011;40374;49.480;20.016;2023-04-24T00:19:11;65.35;;;31.77;;
54464;SDS011;40374;49.480;20.016;2023-04-24T00:21:40;53.90;;;26.92;;
54464;SDS011;40374;49.480;20.016;2023-04-24T00:24:09;55.35;;;27.60;;
54464;SDS011;40374;49.480;20.016;2023-04-24T00:26:37;58.58;;;26.65;;
54464;SDS011;40374;49.480;20.016;2023-04-24T00:29:05;58.85;;;26.17;;
54464;SDS011;40374;49.480;20.016;2023-04-24T00:31:32;43.28;;;22.60;;
54464;SDS011;40374;49.480;20.016;2023-04-24T00:34:02;45.13;;;22.65;;
54464;SDS011;40374;49.480;20.016;2023-04-24T00:36:30;48.63;;;24.67;;
54464;SDS011;40374;49.480;20.016;2023-04-24T00:38:58;53.75;;;23.08;;
54464;SDS011;40374;49.480;20.016;2023-04-24T00:41:26;42.00;;;20.27;;
54464;SDS011;40374;49.480;20.016;2023-04-24T00:43:55;43.53;;;19.70;;
54464;SDS011;40374;49.480;20.016;2023-04-24T00:46:22;39.90;;;19.23;;
54464;SDS011;40374;49.480;20.016;2023-04-24T00:48:50;43.40;;;20.40;;
54464;SDS011;40374;49.480;20.016;2023-04-24T00:51:17;37.13;;;19.15;;
54464;SDS011;40374;49.480;20.016;2023-04-24T00:53:45;43.78;;;21.02;;
54464;SDS011;40374;49.480;20.016;2023-04-24T00:56:13;48.60;;;22.40;;
54464;SDS011;40374;49.480;20.016;2023-04-24T00:58:41;50.05;;;22.15;;
54464;SDS011;40374;49.480;20.016;2023-04-24T01:01:09;91.97;;;49.35;;
54464;SDS011;40374;49.480;20.016;2023-04-24T01:03:39;66.32;;;31.50;;
54464;SDS011;40374;49.480;20.016;2023-04-24T01:06:07;58.25;;;30.40;;
54464;SDS011;40374;49.480;20.016;2023-04-24T01:08:37;56.13;;;26.27;;
54464;SDS011;40374;49.480;20.016;2023-04-24T01:11:06;50.05;;;24.60;;
54464;SDS011;40374;49.480;20.016;2023-04-24T01:13:34;57.53;;;24.98;;
54464;SDS011;40374;49.480;20.016;2023-04-24T01:16:02;56.78;;;29.52;;
54464;SDS011;40374;49.480;20.016;2023-04-24T01:18:30;64.63;;;33.38;;
54464;SDS011;40374;49.480;20.016;2023-04-24T01:20:58;55.70;;;26.92;;
54464;SDS011;40374;49.480;20.016;2023-04-24T01:23:31;52.42;;;28.38;;
54464;SDS011;40374;49.480;20.016;2023-04-24T01:25:58;50.92;;;26.73;;
54464;SDS011;40374;49.480;20.016;2023-04-24T01:28:26;58.38;;;29.02;;
54464;SDS011;40374;49.480;20.016;2023-04-24T01:30:54;57.75;;;26.45;;
54464;SDS011;40374;49.480;20.016;2023-04-24T01:33:23;47.10;;;22.35;;
54464;SDS011;40374;49.480;20.016;2023-04-24T01:35:50;49.65;;;22.40;;
54464;SDS011;40374;49.480;20.016;2023-04-24T01:38:19;46.15;;;22.35;;
54464;SDS011;40374;49.480;20.016;2023-04-24T01:40:47;42.88;;;22.60;;
54464;SDS011;40374;49.480;20.016;2023-04-24T01:43:14;46.10;;;23.55;;
54464;SDS011;40374;49.480;20.016;2023-04-24T01:45:42;45.70;;;21.52;;
54464;SDS011;40374;49.480;20.016;2023-04-24T01:48:11;48.13;;;22.20;;
54464;SDS011;40374;49.480;20.016;2023-04-24T01:50:41;52.80;;;27.52;;
54464;SDS011;40374;49.480;20.016;2023-04-24T01:53:11;47.03;;;25.17;;
54464;SDS011;40374;49.480;20.016;2023-04-24T01:55:39;61.97;;;28.58;;
54464;SDS011;40374;49.480;20.016;2023-04-24T01:58:08;57.80;;;27.10;;
54464;SDS011;40374;49.480;20.016;2023-04-24T02:00:35;46.67;;;24.90;;
54464;SDS011;40374;49.480;20.016;2023-04-24T02:03:03;49.85;;;23.60;;
54464;SDS011;40374;49.480;20.016;2023-04-24T02:05:31;54.38;;;24.58;;
54464;SDS011;40374;49.480;20.016;2023-04-24T02:07:58;56.17;;;24.67;;
54464;SDS011;40374;49.480;20.016;2023-04-24T02:10:26;46.65;;;24.98;;
54464;SDS011;40374;49.480;20.016;2023-04-24T02:12:54;49.95;;;24.67;;
54464;SDS011;40374;49.480;20.016;2023-04-24T02:15:23;48.22;;;24.92;;
54464;SDS011;40374;49.480;20.016;2023-04-24T02:17:51;53.17;;;24.55;;
54464;SDS011;40374;49.480;20.016;2023-04-24T02:20:18;64.28;;;24.05;;
54464;SDS011;40374;49.480;20.016;2023-04-24T02:22:46;50.50;;;25.20;;
54464;SDS011;40374;49.480;20.016;2023-04-24T02:25:13;50.15;;;24.10;;
54464;SDS011;40374;49.480;20.016;2023-04-24T02:27:41;52.75;;;26.08;;
54464;SDS011;40374;49.480;20.016;2023-04-24T02:30:08;54.47;;;26.55;;
54464;SDS011;40374;49.480;20.016;2023-04-24T02:32:37;49.70;;;25.67;;
54464;SDS011;40374;49.480;20.016;2023-04-24T02:35:10;54.30;;;25.63;;
54464;SDS011;40374;49.480;20.016;2023-04-24T02:37:37;49.22;;;24.58;;
54464;SDS011;40374;49.480;20.016;2023-04-24T02:40:05;49.10;;;24.15;;
54464;SDS011;40374;49.480;20.016;2023-04-24T02:42:33;54.53;;;22.35;;
54464;SDS011;40374;49.480;20.016;2023-04-24T02:45:01;46.65;;;23.10;;
54464;SDS011;40374;49.480;20.016;2023-04-24T02:47:29;44.03;;;23.35;;
54464;SDS011;40374;49.480;20.016;2023-04-24T02:49:56;55.17;;;25.60;;
54464;SDS011;40374;49.480;20.016;2023-04-24T02:52:23;46.38;;;23.05;;
54464;SDS011;40374;49.480;20.016;2023-04-24T02:54:51;56.13;;;27.90;;
54464;SDS011;40374;49.480;20.016;2023-04-24T02:57:18;57.30;;;27.40;;
54464;SDS011;40374;49.480;20.016;2023-04-24T02:59:46;57.22;;;25.05;;
54464;SDS011;40374;49.480;20.016;2023-04-24T03:02:13;60.20;;;30.85;;
54464;SDS011;40374;49.480;20.016;2023-04-24T03:04:40;62.33;;;29.17;;
54464;SDS011;40374;49.480;20.016;2023-04-24T03:07:10;67.07;;;32.35;;
54464;SDS011;40374;49.480;20.016;2023-04-24T03:09:37;49.97;;;26.02;;
54464;SDS011;40374;49.480;20.016;2023-04-24T03:12:05;64.50;;;26.80;;
54464;SDS011;40374;49.480;20.016;2023-04-24T03:14:32;55.30;;;26.67;;
54464;SDS011;40374;49.480;20.016;2023-04-24T03:17:00;56.38;;;26.27;;
54464;SDS011;40374;49.480;20.016;2023-04-24T03:19:35;50.80;;;25.48;;
54464;SDS011;40374;49.480;20.016;2023-04-24T03:22:53;52.90;;;25.48;;
54464;SDS011;40374;49.480;20.016;2023-04-24T03:25:21;56.53;;;26.13;;
54464;SDS011;40374;49.480;20.016;2023-04-24T03:27:55;70.97;;;28.90;;
54464;SDS011;40374;49.480;20.016;2023-04-24T03:31:12;79.72;;;32.90;;
54464;SDS011;40374;49.480;20.016;2023-04-24T03:34:17;86.43;;;35.05;;
54464;SDS011;40374;49.480;20.016;2023-04-24T03:37:30;83.50;;;34.00;;
54464;SDS011;40374;49.480;20.016;2023-04-24T03:41:05;82.53;;;34.78;;
54464;SDS011;40374;49.480;20.016;2023-04-24T03:44:13;80.85;;;35.20;;
54464;SDS011;40374;49.480;20.016;2023-04-24T03:47:30;79.07;;;33.90;;
54464;SDS011;40374;49.480;20.016;2023-04-24T03:50:45;88.00;;;37.65;;
54464;SDS011;40374;49.480;20.016;2023-04-24T03:53:19;82.32;;;32.05;;
54464;SDS011;40374;49.480;20.016;2023-04-24T03:56:04;65.57;;;29.80;;
54464;SDS011;40374;49.480;20.016;2023-04-24T03:58:32;58.65;;;29.83;;
54464;SDS011;40374;49.480;20.016;2023-04-24T04:01:00;61.35;;;28.08;;
54464;SDS011;40374;49.480;20.016;2023-04-24T04:04:03;63.00;;;28.23;;
54464;SDS011;40374;49.480;20.016;2023-04-24T04:06:33;68.75;;;31.05;;
54464;SDS011;40374;49.480;20.016;2023-04-24T04:09:02;68.50;;;31.83;;
54464;SDS011;40374;49.480;20.016;2023-04-24T04:12:06;53.05;;;26.45;;
54464;SDS011;40374;49.480;20.016;2023-04-24T04:14:38;57.30;;;26.63;;
54464;SDS011;40374;49.480;20.016;2023-04-24T04:17:09;50.78;;;25.58;;
54464;SDS011;40374;49.480;20.016;2023-04-24T04:19:40;52.10;;;24.20;;
54464;SDS011;40374;49.480;20.016;2023-04-24T04:22:25;53.42;;;23.75;;
54464;SDS011;40374;49.480;20.016;2023-04-24T04:25:08;42.22;;;20.23;;
54464;SDS011;40374;49.480;20.016;2023-04-24T04:27:36;48.20;;;20.80;;
54464;SDS011;40374;49.480;20.016;2023-04-24T04:30:12;44.15;;;22.25;;
54464;SDS011;40374;49.480;20.016;2023-04-24T04:32:48;63.90;;;31.92;;
54464;SDS011;40374;49.480;20.016;2023-04-24T04:35:18;51.95;;;26.02;;
54464;SDS011;40374;49.480;20.016;2023-04-24T04:37:47;67.70;;;29.50;;
54464;SDS011;40374;49.480;20.016;2023-04-24T04:40:36;56.00;;;28.77;;
54464;SDS011;40374;49.480;20.016;2023-04-24T04:43:05;57.53;;;28.17;;
54464;SDS011;40374;49.480;20.016;2023-04-24T04:45:41;62.00;;;32.15;;
54464;SDS011;40374;49.480;20.016;2023-04-24T04:48:29;82.95;;;40.55;;
54464;SDS011;40374;49.480;20.016;2023-04-24T04:51:00;75.32;;;35.20;;
54464;SDS011;40374;49.480;20.016;2023-04-24T04:53:28;57.15;;;27.67;;
54464;SDS011;40374;49.480;20.016;2023-04-24T04:55:56;68.82;;;31.08;;
54464;SDS011;40374;49.480;20.016;2023-04-24T04:58:29;63.83;;;30.13;;
54464;SDS011;40374;49.480;20.016;2023-04-24T05:01:02;51.53;;;26.42;;
54464;SDS011;40374;49.480;20.016;2023-04-24T05:03:35;74.03;;;34.47;;
54464;SDS011;40374;49.480;20.016;2023-04-24T05:06:09;64.57;;;31.10;;
54464;SDS011;40374;49.480;20.016;2023-04-24T05:08:41;69.25;;;34.97;;
54464;SDS011;40374;49.480;20.016;2023-04-24T05:11:14;49.30;;;24.83;;
54464;SDS011;40374;49.480;20.016;2023-04-24T05:13:43;46.33;;;23.17;;
54464;SDS011;40374;49.480;20.016;2023-04-24T05:16:16;53.28;;;28.08;;
54464;SDS011;40374;49.480;20.016;2023-04-24T05:18:44;52.22;;;29.45;;
54464;SDS011;40374;49.480;20.016;2023-04-24T05:21:16;52.15;;;27.83;;
54464;SDS011;40374;49.480;20.016;2023-04-24T05:23:48;49.72;;;29.50;;
54464;SDS011;40374;49.480;20.016;2023-04-24T05:26:24;56.90;;;31.33;;
54464;SDS011;40374;49.480;20.016;2023-04-24T05:28:55;52.78;;;30.70;;
54464;SDS011;40374;49.480;20.016;2023-04-24T05:31:23;50.60;;;27.70;;
54464;SDS011;40374;49.480;20.016;2023-04-24T05:33:51;43.65;;;24.95;;
54464;SDS011;40374;49.480;20.016;2023-04-24T05:36:18;51.15;;;30.00;;
54464;SDS011;40374;49.480;20.016;2023-04-24T05:38:47;54.03;;;27.02;;
54464;SDS011;40374;49.480;20.016;2023-04-24T05:41:15;52.80;;;25.52;;
54464;SDS011;40374;49.480;20.016;2023-04-24T05:43:43;49.30;;;25.70;;
54464;SDS011;40374;49.480;20.016;2023-04-24T05:46:12;50.92;;;24.98;;
54464;SDS011;40374;49.480;20.016;2023-04-24T05:48:40;83.43;;;35.70;;
54464;SDS011;40374;49.480;20.016;2023-04-24T05:51:09;51.28;;;27.33;;
54464;SDS011;40374;49.480;20.016;2023-04-24T05:53:37;52.97;;;28.88;;
54464;SDS011;40374;49.480;20.016;2023-04-24T05:56:05;49.35;;;27.65;;
54464;SDS011;40374;49.480;20.016;2023-04-24T05:58:35;48.80;;;22.48;;
54464;SDS011;40374;49.480;20.016;2023-04-24T06:01:03;38.42;;;20.58;;
54464;SDS011;40374;49.480;20.016;2023-04-24T06:03:32;37.50;;;20.30;;
54464;SDS011;40374;49.480;20.016;2023-04-24T06:06:02;43.90;;;21.38;;
54464;SDS011;40374;49.480;20.016;2023-04-24T06:08:31;39.10;;;20.67;;
54464;SDS011;40374;49.480;20.016;2023-04-24T06:11:00;35.78;;;18.10;;
54464;SDS011;40374;49.480;20.016;2023-04-24T06:13:32;36.88;;;19.50;;
54464;SDS011;40374;49.480;20.016;2023-04-24T06:16:18;39.88;;;18.60;;
54464;SDS011;40374;49.480;20.016;2023-04-24T06:18:54;47.50;;;20.70;;
54464;SDS011;40374;49.480;20.016;2023-04-24T06:21:24;35.25;;;18.85;;
54464;SDS011;40374;49.480;20.016;2023-04-24T06:23:52;37.10;;;20.08;;
54464;SDS011;40374;49.480;20.016;2023-04-24T06:26:19;42.67;;;19.00;;
54464;SDS011;40374;49.480;20.016;2023-04-24T06:28:48;40.72;;;17.40;;
54464;SDS011;40374;49.480;20.016;2023-04-24T06:31:18;28.67;;;16.33;;
54464;SDS011;40374;49.480;20.016;2023-04-24T06:33:47;30.60;;;16.02;;
54464;SDS011;40374;49.480;20.016;2023-04-24T06:36:16;31.10;;;17.83;;
54464;SDS011;40374;49.480;20.016;2023-04-24T06:38:44;31.02;;;18.70;;
54464;SDS011;40374;49.480;20.016;2023-04-24T06:41:12;33.58;;;17.08;;
54464;SDS011;40374;49.480;20.016;2023-04-24T06:43:43;31.75;;;16.58;;
54464;SDS011;40374;49.480;20.016;2023-04-24T06:46:19;31.50;;;16.83;;
54464;SDS011;40374;49.480;20.016;2023-04-24T06:48:52;31.10;;;15.73;;
54464;SDS011;40374;49.480;20.016;2023-04-24T06:51:23;27.88;;;13.77;;
54464;SDS011;40374;49.480;20.016;2023-04-24T06:53:53;23.15;;;14.52;;
54464;SDS011;40374;49.480;20.016;2023-04-24T06:56:23;35.92;;;12.02;;
54464;SDS011;40374;49.480;20.016;2023-04-24T06:58:51;13.10;;;7.90;;
54464;SDS011;40374;49.480;20.016;2023-04-24T07:01:19;15.23;;;4.82;;
54464;SDS011;40374;49.480;20.016;2023-04-24T07:03:47;13.10;;;4.20;;
54464;SDS011;40374;49.480;20.016;2023-04-24T07:06:14;10.88;;;4.82;;
54464;SDS011;40374;49.480;20.016;2023-04-24T07:08:45;11.77;;;5.13;;
54464;SDS011;40374;49.480;20.016;2023-04-24T07:11:13;13.95;;;5.05;;
54464;SDS011;40374;49.480;20.016;2023-04-24T07:13:41;10.30;;;4.68;;
54464;SDS011;40374;49.480;20.016;2023-04-24T07:16:09;16.65;;;6.03;;
54464;SDS011;40374;49.480;20.016;2023-04-24T07:18:46;11.32;;;4.45;;
54464;SDS011;40374;49.480;20.016;2023-04-24T07:21:14;10.13;;;4.35;;
54464;SDS011;40374;49.480;20.016;2023-04-24T07:23:41;7.85;;;4.40;;
54464;SDS011;40374;49.480;20.016;2023-04-24T07:26:09;5.93;;;4.13;;
54464;SDS011;40374;49.480;20.016;2023-04-24T07:28:37;13.40;;;5.03;;
54464;SDS011;40374;49.480;20.016;2023-04-24T07:31:05;8.30;;;4.05;;
54464;SDS011;40374;49.480;20.016;2023-04-24T07:33:33;11.98;;;5.05;;
54464;SDS011;40374;49.480;20.016;2023-04-24T07:36:04;10.13;;;4.18;;
54464;SDS011;40374;49.480;20.016;2023-04-24T07:38:33;12.00;;;4.25;;
54464;SDS011;40374;49.480;20.016;2023-04-24T07:41:01;7.55;;;3.80;;
54464;SDS011;40374;49.480;20.016;2023-04-24T07:43:28;7.20;;;3.85;;
54464;SDS011;40374;49.480;20.016;2023-04-24T07:45:56;207.13;;;10.30;;
54464;SDS011;40374;49.480;20.016;2023-04-24T07:48:24;18.25;;;4.53;;
54464;SDS011;40374;49.480;20.016;2023-04-24T07:50:53;14.57;;;3.45;;
54464;SDS011;40374;49.480;20.016;2023-04-24T07:53:21;6.10;;;3.28;;
54464;SDS011;40374;49.480;20.016;2023-04-24T07:55:49;8.55;;;4.15;;
54464;SDS011;40374;49.480;20.016;2023-04-24T07:58:30;9.32;;;3.75;;
54464;SDS011;40374;49.480;20.016;2023-04-24T08:01:13;5.40;;;2.67;;
54464;SDS011;40374;49.480;20.016;2023-04-24T08:03:41;6.68;;;3.38;;
54464;SDS011;40374;49.480;20.016;2023-04-24T08:09:31;4.63;;;3.05;;
54464;SDS011;40374;49.480;20.016;2023-04-24T08:14:07;10.55;;;3.88;;
54464;SDS011;40374;49.480;20.016;2023-04-24T08:24:38;6.45;;;2.92;;
54464;SDS011;40374;49.480;20.016;2023-04-24T08:27:53;7.05;;;3.00;;
54464;SDS011;40374;49.480;20.016;2023-04-24T08:35:16;5.45;;;3.22;;
54464;SDS011;40374;49.480;20.016;2023-04-24T08:46:34;8.15;;;3.13;;
54464;SDS011;40374;49.480;20.016;2023-04-24T08:49:59;6.72;;;3.25;;
54464;SDS011;40374;49.480;20.016;2023-04-24T09:01:03;9.20;;;3.28;;
54464;SDS011;40374;49.480;20.016;2023-04-24T09:04:48;5.70;;;3.13;;
54464;SDS011;40374;49.480;20.016;2023-04-24T09:18:27;3.88;;;3.13;;
54464;SDS011;40374;49.480;20.016;2023-04-24T09:37:26;5.75;;;3.30;;
54464;SDS011;40374;49.480;20.016;2023-04-24T09:47:11;10.20;;;3.33;;
54464;SDS011;40374;49.480;20.016;2023-04-24T09:50:30;10.40;;;3.45;;
54464;SDS011;40374;49.480;20.016;2023-04-24T09:53:18;6.32;;;3.35;;
54464;SDS011;40374;49.480;20.016;2023-04-24T09:56:49;11.45;;;3.63;;
54464;SDS011;40374;49.480;20.016;2023-04-24T09:59:38;5.13;;;3.20;;
54464;SDS011;40374;49.480;20.016;2023-04-24T10:02:22;7.82;;;3.50;;
54464;SDS011;40374;49.480;20.016;2023-04-24T10:05:57;9.13;;;3.60;;
54464;SDS011;40374;49.480;20.016;2023-04-24T10:08:47;12.80;;;3.65;;
54464;SDS011;40374;49.480;20.016;2023-04-24T10:12:16;10.55;;;3.83;;
54464;SDS011;40374;49.480;20.016;2023-04-24T10:15:20;4.43;;;3.45;;
54464;SDS011;40374;49.480;20.016;2023-04-24T10:18:44;8.35;;;4.25;;
54464;SDS011;40374;49.480;20.016;2023-04-24T10:22:02;8.02;;;3.95;;
54464;SDS011;40374;49.480;20.016;2023-04-24T10:34:08;4.22;;;3.40;;
54464;SDS011;40374;49.480;20.016;2023-04-24T10:37:38;8.10;;;3.38;;
54464;SDS011;40374;49.480;20.016;2023-04-24T10:41:23;54.13;;;5.55;;
54464;SDS011;40374;49.480;20.016;2023-04-24T10:45:23;16.58;;;3.70;;
54464;SDS011;40374;49.480;20.016;2023-04-24T10:49:06;7.30;;;3.47;;
54464;SDS011;40374;49.480;20.016;2023-04-24T10:58:00;8.38;;;3.55;;
54464;SDS011;40374;49.480;20.016;2023-04-24T11:06:06;9.45;;;4.03;;
54464;SDS011;40374;49.480;20.016;2023-04-24T11:10:03;4.35;;;3.50;;
54464;SDS011;40374;49.480;20.016;2023-04-24T11:14:09;9.05;;;4.15;;
54464;SDS011;40374;49.480;20.016;2023-04-24T11:22:28;28.92;;;5.57;;
54464;SDS011;40374;49.480;20.016;2023-04-24T11:30:10;21.00;;;4.60;;
54464;SDS011;40374;49.480;20.016;2023-04-24T11:37:09;10.13;;;3.37;;
54464;SDS011;40374;49.480;20.016;2023-04-24T11:47:31;5.15;;;2.58;;
54464;SDS011;40374;49.480;20.016;2023-04-24T11:54:31;7.65;;;3.08;;
54464;SDS011;40374;49.480;20.016;2023-04-24T11:57:58;7.30;;;3.28;;
54464;SDS011;40374;49.480;20.016;2023-04-24T12:01:00;5.55;;;3.35;;
54464;SDS011;40374;49.480;20.016;2023-04-24T12:04:15;4.93;;;3.13;;
54464;SDS011;40374;49.480;20.016;2023-04-24T12:07:02;6.95;;;3.15;;
54464;SDS011;40374;49.480;20.016;2023-04-24T12:09:41;6.55;;;2.70;;
54464;SDS011;40374;49.480;20.016;2023-04-24T12:12:12;5.80;;;3.85;;
54464;SDS011;40374;49.480;20.016;2023-04-24T12:14:49;6.55;;;3.80;;
54464;SDS011;40374;49.480;20.016;2023-04-24T12:19:59;10.40;;;4.53;;
54464;SDS011;40374;49.480;20.016;2023-04-24T12:22:42;7.78;;;4.00;;
54464;SDS011;40374;49.480;20.016;2023-04-24T12:25:16;4.03;;;3.20;;
54464;SDS011;40374;49.480;20.016;2023-04-24T12:27:46;7.97;;;3.72;;
54464;SDS011;40374;49.480;20.016;2023-04-24T12:30:20;5.25;;;3.63;;
54464;SDS011;40374;49.480;20.016;2023-04-24T12:32:49;9.32;;;4.40;;
54464;SDS011;40374;49.480;20.016;2023-04-24T12:35:20;13.45;;;4.43;;
54464;SDS011;40374;49.480;20.016;2023-04-24T12:37:50;4.53;;;3.67;;
54464;SDS011;40374;49.480;20.016;2023-04-24T12:40:20;4.93;;;3.53;;
54464;SDS011;40374;49.480;20.016;2023-04-24T12:42:49;7.22;;;3.35;;
54464;SDS011;40374;49.480;20.016;2023-04-24T12:45:19;5.93;;;3.47;;
54464;SDS011;40374;49.480;20.016;2023-04-24T12:47:48;7.00;;;3.50;;
54464;SDS011;40374;49.480;20.016;2023-04-24T12:50:17;4.00;;;3.20;;
54464;SDS011;40374;49.480;20.016;2023-04-24T12:52:45;5.80;;;3.90;;
54464;SDS011;40374;49.480;20.016;2023-04-24T12:55:13;5.93;;;3.47;;
54464;SDS011;40374;49.480;20.016;2023-04-24T12:57:41;5.90;;;4.03;;
54464;SDS011;40374;49.480;20.016;2023-04-24T13:00:10;5.78;;;3.70;;
54464;SDS011;40374;49.480;20.016;2023-04-24T13:02:38;4.00;;;3.50;;
54464;SDS011;40374;49.480;20.016;2023-04-24T13:05:07;5.38;;;3.58;;
54464;SDS011;40374;49.480;20.016;2023-04-24T13:07:35;4.28;;;3.70;;
54464;SDS011;40374;49.480;20.016;2023-04-24T13:10:03;3.50;;;3.17;;
54464;SDS011;40374;49.480;20.016;2023-04-24T13:12:31;9.10;;;3.17;;
54464;SDS011;40374;49.480;20.016;2023-04-24T13:14:59;8.68;;;3.40;;
54464;SDS011;40374;49.480;20.016;2023-04-24T13:17:28;6.95;;;3.50;;
54464;SDS011;40374;49.480;20.016;2023-04-24T13:19:56;5.50;;;3.70;;
54464;SDS011;40374;49.480;20.016;2023-04-24T13:22:23;7.65;;;4.68;;
54464;SDS011;40374;49.480;20.016;2023-04-24T13:24:52;11.05;;;6.10;;
54464;SDS011;40374;49.480;20.016;2023-04-24T13:27:19;13.73;;;5.43;;
54464;SDS011;40374;49.480;20.016;2023-04-24T13:29:48;9.88;;;6.38;;
54464;SDS011;40374;49.480;20.016;2023-04-24T13:32:17;9.85;;;6.03;;
54464;SDS011;40374;49.480;20.016;2023-04-24T13:34:45;13.10;;;6.97;;
54464;SDS011;40374;49.480;20.016;2023-04-24T13:37:14;13.70;;;8.80;;
54464;SDS011;40374;49.480;20.016;2023-04-24T13:39:43;18.20;;;10.32;;
54464;SDS011;40374;49.480;20.016;2023-04-24T13:42:11;16.52;;;10.75;;
54464;SDS011;40374;49.480;20.016;2023-04-24T13:44:40;20.35;;;9.20;;
54464;SDS011;40374;49.480;20.016;2023-04-24T13:47:11;11.70;;;5.97;;
54464;SDS011;40374;49.480;20.016;2023-04-24T13:49:41;9.45;;;3.95;;
54464;SDS011;40374;49.480;20.016;2023-04-24T13:52:10;6.20;;;4.13;;
54464;SDS011;40374;49.480;20.016;2023-04-24T13:54:42;4.85;;;4.20;;
54464;SDS011;40374;49.480;20.016;2023-04-24T13:57:10;8.52;;;4.47;;
54464;SDS011;40374;49.480;20.016;2023-04-24T13:59:38;8.88;;;5.55;;
54464;SDS011;40374;49.480;20.016;2023-04-24T14:02:06;9.32;;;6.57;;
54464;SDS011;40374;49.480;20.016;2023-04-24T14:04:34;26.63;;;11.48;;
54464;SDS011;40374;49.480;20.016;2023-04-24T14:07:03;35.65;;;18.17;;
54464;SDS011;40374;49.480;20.016;2023-04-24T14:09:31;31.02;;;15.68;;
54464;SDS011;40374;49.480;20.016;2023-04-24T14:11:59;21.33;;;12.38;;
54464;SDS011;40374;49.480;20.016;2023-04-24T14:14:29;17.48;;;11.75;;
54464;SDS011;40374;49.480;20.016;2023-04-24T14:16:57;19.77;;;12.63;;
54464;SDS011;40374;49.480;20.016;2023-04-24T14:19:29;18.58;;;11.65;;
54464;SDS011;40374;49.480;20.016;2023-04-24T14:21:57;22.73;;;13.27;;
54464;SDS011;40374;49.480;20.016;2023-04-24T14:24:27;14.18;;;10.48;;
54464;SDS011;40374;49.480;20.016;2023-04-24T14:26:55;17.65;;;10.55;;
54464;SDS011;40374;49.480;20.016;2023-04-24T14:29:24;8.23;;;5.57;;
54464;SDS011;40374;49.480;20.016;2023-04-24T14:31:53;16.75;;;9.38;;
54464;SDS011;40374;49.480;20.016;2023-04-24T14:34:21;23.42;;;9.65;;
54464;SDS011;40374;49.480;20.016;2023-04-24T14:36:49;18.98;;;10.68;;
54464;SDS011;40374;49.480;20.016;2023-04-24T14:39:18;17.02;;;11.02;;
54464;SDS011;40374;49.480;20.016;2023-04-24T14:41:45;23.17;;;15.70;;
54464;SDS011;40374;49.480;20.016;2023-04-24T14:44:13;32.28;;;23.73;;
54464;SDS011;40374;49.480;20.016;2023-04-24T14:46:41;12.68;;;9.48;;
54464;SDS011;40374;49.480;20.016;2023-04-24T14:49:10;22.15;;;13.15;;
54464;SDS011;40374;49.480;20.016;2023-04-24T14:51:40;21.10;;;14.85;;
54464;SDS011;40374;49.480;20.016;2023-04-24T14:54:09;21.98;;;15.25;;
54464;SDS011;40374;49.480;20.016;2023-04-24T14:56:37;26.80;;;16.33;;
54464;SDS011;40374;49.480;20.016;2023-04-24T14:59:08;28.35;;;18.00;;
54464;SDS011;40374;49.480;20.016;2023-04-24T15:01:36;27.42;;;16.13;;
54464;SDS011;40374;49.480;20.016;2023-04-24T15:04:04;32.67;;;18.65;;
54464;SDS011;40374;49.480;20.016;2023-04-24T15:06:33;49.75;;;27.08;;
54464;SDS011;40374;49.480;20.016;2023-04-24T15:09:01;28.02;;;16.73;;
54464;SDS011;40374;49.480;20.016;2023-04-24T15:11:29;21.70;;;13.85;;
54464;SDS011;40374;49.480;20.016;2023-04-24T15:13:58;23.48;;;13.77;;
54464;SDS011;40374;49.480;20.016;2023-04-24T15:16:26;19.60;;;13.55;;
54464;SDS011;40374;49.480;20.016;2023-04-24T15:18:55;24.48;;;13.95;;
54464;SDS011;40374;49.480;20.016;2023-04-24T15:21:24;26.40;;;14.60;;
54464;SDS011;40374;49.480;20.016;2023-04-24T15:23:53;21.90;;;14.45;;
54464;SDS011;40374;49.480;20.016;2023-04-24T15:26:21;24.88;;;14.63;;
54464;SDS011;40374;49.480;20.016;2023-04-24T15:28:51;33.60;;;19.58;;
54464;SDS011;40374;49.480;20.016;2023-04-24T15:31:20;23.33;;;15.38;;
54464;SDS011;40374;49.480;20.016;2023-04-24T15:33:53;30.35;;;18.38;;
54464;SDS011;40374;49.480;20.016;2023-04-24T15:36:21;20.42;;;14.50;;
54464;SDS011;40374;49.480;20.016;2023-04-24T15:38:50;24.02;;;15.65;;
54464;SDS011;40374;49.480;20.016;2023-04-24T15:41:18;31.80;;;18.13;;
54464;SDS011;40374;49.480;20.016;2023-04-24T15:43:51;26.05;;;15.98;;
54464;SDS011;40374;49.480;20.016;2023-04-24T15:46:33;26.10;;;15.20;;
54464;SDS011;40374;49.480;20.016;2023-04-24T15:49:08;37.00;;;16.92;;
54464;SDS011;40374;49.480;20.016;2023-04-24T15:55:31;25.40;;;16.08;;
54464;SDS011;40374;49.480;20.016;2023-04-24T15:58:00;30.40;;;19.48;;
54464;SDS011;40374;49.480;20.016;2023-04-24T16:00:29;27.75;;;16.83;;
54464;SDS011;40374;49.480;20.016;2023-04-24T16:03:01;26.33;;;16.58;;
54464;SDS011;40374;49.480;20.016;2023-04-24T16:05:30;51.20;;;30.67;;
54464;SDS011;40374;49.480;20.016;2023-04-24T16:07:58;38.85;;;25.63;;
54464;SDS011;40374;49.480;20.016;2023-04-24T16:10:26;43.35;;;27.80;;
54464;SDS011;40374;49.480;20.016;2023-04-24T16:12:54;40.35;;;22.98;;
54464;SDS011;40374;49.480;20.016;2023-04-24T16:15:22;39.83;;;23.90;;
54464;SDS011;40374;49.480;20.016;2023-04-24T16:17:50;39.05;;;25.00;;
54464;SDS011;40374;49.480;20.016;2023-04-24T16:20:21;37.40;;;25.25;;
54464;SDS011;40374;49.480;20.016;2023-04-24T16:22:49;37.63;;;21.98;;
54464;SDS011;40374;49.480;20.016;2023-04-24T16:25:19;30.80;;;19.00;;
54464;SDS011;40374;49.480;20.016;2023-04-24T16:27:46;33.13;;;20.42;;
54464;SDS011;40374;49.480;20.016;2023-04-24T16:30:18;34.33;;;19.90;;
54464;SDS011;40374;49.480;20.016;2023-04-24T16:32:46;30.52;;;19.48;;
54464;SDS011;40374;49.480;20.016;2023-04-24T16:35:14;46.65;;;24.75;;
54464;SDS011;40374;49.480;20.016;2023-04-24T16:37:45;42.33;;;25.42;;
54464;SDS011;40374;49.480;20.016;2023-04-24T16:40:14;41.92;;;25.70;;
54464;SDS011;40374;49.480;20.016;2023-04-24T16:42:41;38.78;;;26.98;;
54464;SDS011;40374;49.480;20.016;2023-04-24T16:45:09;49.05;;;31.98;;
54464;SDS011;40374;49.480;20.016;2023-04-24T16:47:37;42.92;;;25.27;;
54464;SDS011;40374;49.480;20.016;2023-04-24T16:50:07;46.60;;;28.30;;
54464;SDS011;40374;49.480;20.016;2023-04-24T16:52:39;40.72;;;25.13;;
54464;SDS011;40374;49.480;20.016;2023-04-24T16:55:07;45.42;;;28.95;;
54464;SDS011;40374;49.480;20.016;2023-04-24T16:57:36;40.22;;;25.10;;
54464;SDS011;40374;49.480;20.016;2023-04-24T17:00:05;60.58;;;38.33;;
54464;SDS011;40374;49.480;20.016;2023-04-24T17:02:34;196.48;;;96.30;;
54464;SDS011;40374;49.480;20.016;2023-04-24T17:05:02;108.95;;;60.58;;